sensor_id;sensor_type;location;lat;lon;timestamp;P1;durP1;ratioP1;P2;durP2;ratioP2
56171;SDS011;42052;41.634;-0.946;2023-04-25T00:01:54;4.53;;;1.60;;
56171;SDS011;42052;41.634;-0.946;2023-04-25T00:04:41;2.92;;;1.50;;
56171;SDS011;42052;41.634;-0.946;2023-04-25T00:07:28;2.70;;;1.60;;
56171;SDS011;42052;41.634;-0.946;2023-04-25T00:10:15;5.47;;;1.63;;
56171;SDS011;42052;41.634;-0.946;2023-04-25T00:13:01;2.30;;;1.42;;
56171;SDS011;42052;41.634;-0.946;2023-04-25T00:15:48;3.10;;;1.52;;
56171;SDS011;42052;41.634;-0.946;2023-04-25T00:18:35;4.68;;;1.60;;
56171;SDS011;42052;41.634;-0.946;2023-04-25T00:21:22;2.85;;;1.30;;
56171;SDS011;42052;41.634;-0.946;2023-04-25T00:24:09;3.60;;;1.30;;
56171;SDS011;42052;41.634;-0.946;2023-04-25T00:26:56;3.75;;;1.58;;
56171;SDS011;42052;41.634;-0.946;2023-04-25T00:29:42;1.85;;;1.35;;
56171;SDS011;42052;41.634;-0.946;2023-04-25T00:32:28;3.10;;;1.30;;
56171;SDS011;42052;41.634;-0.946;2023-04-25T00:35:14;3.35;;;1.20;;
56171;SDS011;42052;41.634;-0.946;2023-04-25T00:38:00;1.63;;;0.90;;
56171;SDS011;42052;41.634;-0.946;2023-04-25T00:40:46;4.25;;;1.23;;
56171;SDS011;42052;41.634;-0.946;2023-04-25T00:43:33;2.63;;;1.23;;
56171;SDS011;42052;41.634;-0.946;2023-04-25T00:46:21;2.80;;;1.20;;
56171;SDS011;42052;41.634;-0.946;2023-04-25T00:49:07;2.70;;;0.95;;
56171;SDS011;42052;41.634;-0.946;2023-04-25T00:51:54;1.45;;;1.08;;
56171;SDS011;42052;41.634;-0.946;2023-04-25T00:54:41;2.17;;;1.10;;
56171;SDS011;42052;41.634;-0.946;2023-04-25T00:57:28;1.33;;;0.90;;
56171;SDS011;42052;41.634;-0.946;2023-04-25T01:00:14;2.10;;;1.00;;
56171;SDS011;42052;41.634;-0.946;2023-04-25T01:03:01;3.88;;;1.00;;
56171;SDS011;42052;41.634;-0.946;2023-04-25T01:05:49;1.90;;;1.00;;
56171;SDS011;42052;41.634;-0.946;2023-04-25T01:08:37;2.53;;;0.95;;
56171;SDS011;42052;41.634;-0.946;2023-04-25T01:11:24;3.20;;;0.93;;
56171;SDS011;42052;41.634;-0.946;2023-04-25T01:14:10;2.97;;;1.00;;
56171;SDS011;42052;41.634;-0.946;2023-04-25T01:16:58;2.75;;;1.00;;
56171;SDS011;42052;41.634;-0.946;2023-04-25T01:19:45;1.58;;;0.88;;
56171;SDS011;42052;41.634;-0.946;2023-04-25T01:22:34;2.35;;;0.80;;
56171;SDS011;42052;41.634;-0.946;2023-04-25T01:25:21;1.48;;;0.80;;
56171;SDS011;42052;41.634;-0.946;2023-04-25T01:28:07;2.85;;;0.90;;
56171;SDS011;42052;41.634;-0.946;2023-04-25T01:30:54;1.90;;;0.95;;
56171;SDS011;42052;41.634;-0.946;2023-04-25T01:33:41;3.45;;;0.85;;
56171;SDS011;42052;41.634;-0.946;2023-04-25T01:36:27;3.38;;;0.90;;
56171;SDS011;42052;41.634;-0.946;2023-04-25T01:39:14;2.85;;;1.00;;
56171;SDS011;42052;41.634;-0.946;2023-04-25T01:42:01;3.05;;;0.80;;
56171;SDS011;42052;41.634;-0.946;2023-04-25T01:44:47;2.78;;;0.98;;
56171;SDS011;42052;41.634;-0.946;2023-04-25T01:47:33;2.72;;;0.90;;
56171;SDS011;42052;41.634;-0.946;2023-04-25T01:50:23;3.35;;;0.90;;
56171;SDS011;42052;41.634;-0.946;2023-04-25T01:53:09;2.58;;;0.80;;
56171;SDS011;42052;41.634;-0.946;2023-04-25T01:55:58;2.13;;;0.90;;
56171;SDS011;42052;41.634;-0.946;2023-04-25T01:58:44;1.85;;;0.90;;
56171;SDS011;42052;41.634;-0.946;2023-04-25T02:01:31;2.10;;;0.70;;
56171;SDS011;42052;41.634;-0.946;2023-04-25T02:04:17;1.30;;;0.60;;
56171;SDS011;42052;41.634;-0.946;2023-04-25T02:07:03;1.85;;;0.73;;
56171;SDS011;42052;41.634;-0.946;2023-04-25T02:09:51;1.90;;;0.75;;
56171;SDS011;42052;41.634;-0.946;2023-04-25T02:12:37;3.58;;;0.75;;
56171;SDS011;42052;41.634;-0.946;2023-04-25T02:15:23;1.92;;;0.70;;
56171;SDS011;42052;41.634;-0.946;2023-04-25T02:18:10;4.50;;;0.80;;
56171;SDS011;42052;41.634;-0.946;2023-04-25T02:20:58;2.10;;;0.68;;
56171;SDS011;42052;41.634;-0.946;2023-04-25T02:23:45;1.73;;;0.70;;
56171;SDS011;42052;41.634;-0.946;2023-04-25T02:26:34;2.53;;;0.88;;
56171;SDS011;42052;41.634;-0.946;2023-04-25T02:29:20;2.17;;;0.80;;
56171;SDS011;42052;41.634;-0.946;2023-04-25T02:32:07;1.77;;;0.77;;
56171;SDS011;42052;41.634;-0.946;2023-04-25T02:34:53;3.38;;;0.90;;
56171;SDS011;42052;41.634;-0.946;2023-04-25T02:37:39;3.53;;;0.80;;
56171;SDS011;42052;41.634;-0.946;2023-04-25T02:40:26;3.78;;;0.85;;
56171;SDS011;42052;41.634;-0.946;2023-04-25T02:43:12;3.20;;;0.80;;
56171;SDS011;42052;41.634;-0.946;2023-04-25T02:45:59;1.90;;;0.73;;
56171;SDS011;42052;41.634;-0.946;2023-04-25T02:48:45;1.80;;;0.70;;
56171;SDS011;42052;41.634;-0.946;2023-04-25T02:51:31;2.03;;;0.60;;
56171;SDS011;42052;41.634;-0.946;2023-04-25T02:54:18;2.00;;;0.70;;
56171;SDS011;42052;41.634;-0.946;2023-04-25T02:57:04;2.03;;;0.80;;
56171;SDS011;42052;41.634;-0.946;2023-04-25T02:59:50;2.22;;;0.88;;
56171;SDS011;42052;41.634;-0.946;2023-04-25T03:02:37;2.17;;;0.90;;
56171;SDS011;42052;41.634;-0.946;2023-04-25T03:05:23;2.08;;;0.70;;
56171;SDS011;42052;41.634;-0.946;2023-04-25T03:08:10;2.90;;;0.90;;
56171;SDS011;42052;41.634;-0.946;2023-04-25T03:10:56;1.75;;;0.80;;
56171;SDS011;42052;41.634;-0.946;2023-04-25T03:13:42;3.33;;;0.70;;
56171;SDS011;42052;41.634;-0.946;2023-04-25T03:16:29;2.08;;;0.80;;
56171;SDS011;42052;41.634;-0.946;2023-04-25T03:19:16;2.00;;;0.75;;
56171;SDS011;42052;41.634;-0.946;2023-04-25T03:22:02;2.13;;;0.88;;
56171;SDS011;42052;41.634;-0.946;2023-04-25T03:24:49;1.98;;;0.70;;
56171;SDS011;42052;41.634;-0.946;2023-04-25T03:27:35;1.80;;;0.68;;
56171;SDS011;42052;41.634;-0.946;2023-04-25T03:30:21;1.00;;;0.60;;
56171;SDS011;42052;41.634;-0.946;2023-04-25T03:33:07;1.10;;;0.63;;
56171;SDS011;42052;41.634;-0.946;2023-04-25T03:35:54;3.58;;;0.70;;
56171;SDS011;42052;41.634;-0.946;2023-04-25T03:38:40;1.77;;;0.60;;
56171;SDS011;42052;41.634;-0.946;2023-04-25T03:41:27;1.33;;;0.60;;
56171;SDS011;42052;41.634;-0.946;2023-04-25T03:44:13;0.75;;;0.55;;
56171;SDS011;42052;41.634;-0.946;2023-04-25T03:47:00;2.78;;;0.73;;
56171;SDS011;42052;41.634;-0.946;2023-04-25T03:49:46;1.48;;;0.60;;
56171;SDS011;42052;41.634;-0.946;2023-04-25T03:52:32;1.60;;;0.52;;
56171;SDS011;42052;41.634;-0.946;2023-04-25T03:55:18;2.05;;;0.80;;
56171;SDS011;42052;41.634;-0.946;2023-04-25T03:58:04;3.22;;;0.80;;
56171;SDS011;42052;41.634;-0.946;2023-04-25T04:00:50;1.58;;;0.65;;
56171;SDS011;42052;41.634;-0.946;2023-04-25T04:03:37;2.92;;;0.73;;
56171;SDS011;42052;41.634;-0.946;2023-04-25T04:06:24;1.65;;;0.70;;
56171;SDS011;42052;41.634;-0.946;2023-04-25T04:09:10;2.75;;;0.90;;
56171;SDS011;42052;41.634;-0.946;2023-04-25T04:11:57;1.13;;;0.60;;
56171;SDS011;42052;41.634;-0.946;2023-04-25T04:14:43;1.33;;;0.70;;
56171;SDS011;42052;41.634;-0.946;2023-04-25T04:17:30;1.38;;;0.70;;
56171;SDS011;42052;41.634;-0.946;2023-04-25T04:20:16;2.75;;;0.90;;
56171;SDS011;42052;41.634;-0.946;2023-04-25T04:23:02;1.92;;;0.73;;
56171;SDS011;42052;41.634;-0.946;2023-04-25T04:25:49;2.75;;;0.90;;
56171;SDS011;42052;41.634;-0.946;2023-04-25T04:28:35;1.98;;;0.80;;
56171;SDS011;42052;41.634;-0.946;2023-04-25T04:31:21;3.13;;;0.60;;
56171;SDS011;42052;41.634;-0.946;2023-04-25T04:34:07;1.63;;;0.63;;
56171;SDS011;42052;41.634;-0.946;2023-04-25T04:36:54;1.63;;;1.00;;
56171;SDS011;42052;41.634;-0.946;2023-04-25T04:39:41;1.90;;;0.70;;
56171;SDS011;42052;41.634;-0.946;2023-04-25T04:42:27;1.23;;;0.60;;
56171;SDS011;42052;41.634;-0.946;2023-04-25T04:45:14;3.15;;;0.70;;
56171;SDS011;42052;41.634;-0.946;2023-04-25T04:48:01;1.63;;;0.80;;
56171;SDS011;42052;41.634;-0.946;2023-04-25T04:50:47;1.45;;;0.70;;
56171;SDS011;42052;41.634;-0.946;2023-04-25T04:53:33;1.10;;;0.50;;
56171;SDS011;42052;41.634;-0.946;2023-04-25T04:56:20;1.58;;;0.70;;
56171;SDS011;42052;41.634;-0.946;2023-04-25T04:59:09;1.85;;;0.70;;
56171;SDS011;42052;41.634;-0.946;2023-04-25T05:01:55;1.35;;;0.77;;
56171;SDS011;42052;41.634;-0.946;2023-04-25T05:04:41;3.35;;;0.77;;
56171;SDS011;42052;41.634;-0.946;2023-04-25T05:07:27;2.53;;;0.63;;
56171;SDS011;42052;41.634;-0.946;2023-04-25T05:10:16;2.05;;;0.80;;
56171;SDS011;42052;41.634;-0.946;2023-04-25T05:13:03;3.33;;;1.10;;
56171;SDS011;42052;41.634;-0.946;2023-04-25T05:15:49;2.45;;;0.70;;
56171;SDS011;42052;41.634;-0.946;2023-04-25T05:18:36;3.58;;;0.93;;
56171;SDS011;42052;41.634;-0.946;2023-04-25T05:21:22;2.35;;;0.60;;
56171;SDS011;42052;41.634;-0.946;2023-04-25T05:24:09;3.20;;;0.93;;
56171;SDS011;42052;41.634;-0.946;2023-04-25T05:26:55;10.35;;;2.10;;
56171;SDS011;42052;41.634;-0.946;2023-04-25T05:29:41;21.38;;;3.55;;
56171;SDS011;42052;41.634;-0.946;2023-04-25T05:32:28;17.70;;;3.50;;
56171;SDS011;42052;41.634;-0.946;2023-04-25T05:35:14;20.92;;;4.10;;
56171;SDS011;42052;41.634;-0.946;2023-04-25T05:38:00;15.25;;;3.55;;
56171;SDS011;42052;41.634;-0.946;2023-04-25T05:40:46;26.85;;;4.10;;
56171;SDS011;42052;41.634;-0.946;2023-04-25T05:43:32;22.02;;;4.47;;
56171;SDS011;42052;41.634;-0.946;2023-04-25T05:46:19;25.75;;;4.63;;
56171;SDS011;42052;41.634;-0.946;2023-04-25T05:49:05;33.30;;;6.15;;
56171;SDS011;42052;41.634;-0.946;2023-04-25T05:51:51;23.83;;;5.25;;
56171;SDS011;42052;41.634;-0.946;2023-04-25T05:54:37;26.10;;;4.78;;
56171;SDS011;42052;41.634;-0.946;2023-04-25T05:57:24;31.38;;;5.78;;
56171;SDS011;42052;41.634;-0.946;2023-04-25T06:00:12;28.45;;;5.85;;
56171;SDS011;42052;41.634;-0.946;2023-04-25T06:03:00;21.95;;;4.82;;
56171;SDS011;42052;41.634;-0.946;2023-04-25T06:05:46;18.85;;;4.28;;
56171;SDS011;42052;41.634;-0.946;2023-04-25T06:08:32;21.27;;;4.70;;
56171;SDS011;42052;41.634;-0.946;2023-04-25T06:11:19;22.15;;;5.20;;
56171;SDS011;42052;41.634;-0.946;2023-04-25T06:14:05;17.67;;;4.70;;
56171;SDS011;42052;41.634;-0.946;2023-04-25T06:16:52;18.20;;;4.40;;
56171;SDS011;42052;41.634;-0.946;2023-04-25T06:19:40;19.83;;;4.38;;
56171;SDS011;42052;41.634;-0.946;2023-04-25T06:22:26;21.98;;;4.70;;
56171;SDS011;42052;41.634;-0.946;2023-04-25T06:25:12;17.10;;;4.32;;
56171;SDS011;42052;41.634;-0.946;2023-04-25T06:27:58;18.13;;;4.07;;
56171;SDS011;42052;41.634;-0.946;2023-04-25T06:30:45;16.83;;;3.90;;
56171;SDS011;42052;41.634;-0.946;2023-04-25T06:33:31;19.90;;;4.07;;
56171;SDS011;42052;41.634;-0.946;2023-04-25T06:36:18;19.17;;;4.35;;
56171;SDS011;42052;41.634;-0.946;2023-04-25T06:39:06;14.85;;;4.32;;
56171;SDS011;42052;41.634;-0.946;2023-04-25T06:41:52;13.38;;;3.92;;
56171;SDS011;42052;41.634;-0.946;2023-04-25T06:44:39;15.57;;;3.78;;
56171;SDS011;42052;41.634;-0.946;2023-04-25T06:47:25;15.68;;;3.90;;
56171;SDS011;42052;41.634;-0.946;2023-04-25T06:50:11;11.95;;;3.55;;
56171;SDS011;42052;41.634;-0.946;2023-04-25T06:52:57;11.43;;;3.25;;
56171;SDS011;42052;41.634;-0.946;2023-04-25T06:55:44;15.45;;;3.30;;
56171;SDS011;42052;41.634;-0.946;2023-04-25T06:58:31;11.38;;;3.40;;
56171;SDS011;42052;41.634;-0.946;2023-04-25T07:01:17;13.35;;;3.63;;
56171;SDS011;42052;41.634;-0.946;2023-04-25T07:04:04;11.93;;;3.45;;
56171;SDS011;42052;41.634;-0.946;2023-04-25T07:06:50;15.15;;;3.85;;
56171;SDS011;42052;41.634;-0.946;2023-04-25T07:09:36;8.93;;;3.08;;
56171;SDS011;42052;41.634;-0.946;2023-04-25T07:12:41;9.68;;;3.50;;
56171;SDS011;42052;41.634;-0.946;2023-04-25T07:15:27;10.65;;;2.90;;
56171;SDS011;42052;41.634;-0.946;2023-04-25T07:18:13;14.60;;;3.50;;
56171;SDS011;42052;41.634;-0.946;2023-04-25T07:21:00;10.45;;;3.25;;
56171;SDS011;42052;41.634;-0.946;2023-04-25T07:23:47;12.10;;;3.03;;
56171;SDS011;42052;41.634;-0.946;2023-04-25T07:26:33;10.15;;;3.13;;
56171;SDS011;42052;41.634;-0.946;2023-04-25T07:29:19;10.45;;;2.88;;
56171;SDS011;42052;41.634;-0.946;2023-04-25T07:32:05;12.45;;;2.97;;
56171;SDS011;42052;41.634;-0.946;2023-04-25T07:34:52;11.07;;;3.00;;
56171;SDS011;42052;41.634;-0.946;2023-04-25T07:37:39;9.73;;;2.83;;
56171;SDS011;42052;41.634;-0.946;2023-04-25T07:40:26;7.72;;;2.58;;
56171;SDS011;42052;41.634;-0.946;2023-04-25T07:43:12;7.80;;;2.90;;
56171;SDS011;42052;41.634;-0.946;2023-04-25T07:46:01;8.18;;;2.40;;
56171;SDS011;42052;41.634;-0.946;2023-04-25T07:48:48;8.45;;;2.63;;
56171;SDS011;42052;41.634;-0.946;2023-04-25T07:51:34;8.00;;;2.67;;
56171;SDS011;42052;41.634;-0.946;2023-04-25T07:54:20;8.00;;;2.63;;
56171;SDS011;42052;41.634;-0.946;2023-04-25T07:57:06;7.78;;;2.67;;
56171;SDS011;42052;41.634;-0.946;2023-04-25T07:59:53;6.07;;;2.50;;
56171;SDS011;42052;41.634;-0.946;2023-04-25T08:02:39;8.93;;;2.90;;
56171;SDS011;42052;41.634;-0.946;2023-04-25T08:05:26;5.55;;;2.50;;
56171;SDS011;42052;41.634;-0.946;2023-04-25T08:08:12;9.52;;;2.80;;
56171;SDS011;42052;41.634;-0.946;2023-04-25T08:10:58;8.38;;;2.40;;
56171;SDS011;42052;41.634;-0.946;2023-04-25T08:13:44;8.20;;;2.20;;
56171;SDS011;42052;41.634;-0.946;2023-04-25T08:16:31;10.48;;;3.00;;
56171;SDS011;42052;41.634;-0.946;2023-04-25T08:19:18;8.48;;;2.03;;
56171;SDS011;42052;41.634;-0.946;2023-04-25T08:22:04;7.55;;;2.25;;
56171;SDS011;42052;41.634;-0.946;2023-04-25T08:24:50;8.27;;;2.33;;
56171;SDS011;42052;41.634;-0.946;2023-04-25T08:27:36;7.28;;;2.15;;
56171;SDS011;42052;41.634;-0.946;2023-04-25T08:30:23;7.70;;;2.60;;
56171;SDS011;42052;41.634;-0.946;2023-04-25T08:33:09;6.75;;;2.42;;
56171;SDS011;42052;41.634;-0.946;2023-04-25T08:35:56;6.32;;;2.00;;
56171;SDS011;42052;41.634;-0.946;2023-04-25T08:38:42;6.07;;;2.03;;
56171;SDS011;42052;41.634;-0.946;2023-04-25T08:41:28;6.40;;;2.20;;
56171;SDS011;42052;41.634;-0.946;2023-04-25T08:44:15;7.85;;;2.15;;
56171;SDS011;42052;41.634;-0.946;2023-04-25T08:47:02;6.38;;;1.83;;
56171;SDS011;42052;41.634;-0.946;2023-04-25T08:49:50;7.53;;;2.40;;
56171;SDS011;42052;41.634;-0.946;2023-04-25T08:52:45;7.03;;;1.95;;
56171;SDS011;42052;41.634;-0.946;2023-04-25T08:55:32;7.07;;;2.33;;
56171;SDS011;42052;41.634;-0.946;2023-04-25T08:58:19;5.72;;;2.38;;
56171;SDS011;42052;41.634;-0.946;2023-04-25T09:01:05;5.80;;;2.22;;
56171;SDS011;42052;41.634;-0.946;2023-04-25T09:03:52;4.50;;;1.80;;
56171;SDS011;42052;41.634;-0.946;2023-04-25T09:06:38;8.55;;;2.35;;
56171;SDS011;42052;41.634;-0.946;2023-04-25T09:09:24;5.35;;;1.90;;
56171;SDS011;42052;41.634;-0.946;2023-04-25T09:12:11;6.57;;;2.03;;
56171;SDS011;42052;41.634;-0.946;2023-04-25T09:15:01;5.82;;;2.05;;
56171;SDS011;42052;41.634;-0.946;2023-04-25T09:17:59;3.97;;;1.80;;
56171;SDS011;42052;41.634;-0.946;2023-04-25T09:20:45;6.82;;;2.05;;
56171;SDS011;42052;41.634;-0.946;2023-04-25T09:23:38;3.88;;;1.85;;
56171;SDS011;42052;41.634;-0.946;2023-04-25T09:26:34;5.85;;;2.05;;
56171;SDS011;42052;41.634;-0.946;2023-04-25T09:29:24;6.05;;;1.80;;
56171;SDS011;42052;41.634;-0.946;2023-04-25T09:32:17;4.03;;;1.90;;
56171;SDS011;42052;41.634;-0.946;2023-04-25T09:35:08;7.28;;;1.85;;
56171;SDS011;42052;41.634;-0.946;2023-04-25T09:37:55;4.13;;;1.83;;
56171;SDS011;42052;41.634;-0.946;2023-04-25T09:43:31;4.57;;;1.73;;
56171;SDS011;42052;41.634;-0.946;2023-04-25T09:46:17;3.88;;;1.80;;
56171;SDS011;42052;41.634;-0.946;2023-04-25T09:49:06;3.92;;;1.60;;
56171;SDS011;42052;41.634;-0.946;2023-04-25T09:51:56;4.75;;;1.70;;
56171;SDS011;42052;41.634;-0.946;2023-04-25T09:54:47;4.90;;;1.80;;
56171;SDS011;42052;41.634;-0.946;2023-04-25T09:57:34;4.93;;;1.60;;
56171;SDS011;42052;41.634;-0.946;2023-04-25T10:03:13;3.70;;;1.55;;
56171;SDS011;42052;41.634;-0.946;2023-04-25T10:06:02;3.53;;;1.77;;
56171;SDS011;42052;41.634;-0.946;2023-04-25T10:08:50;3.42;;;1.60;;
56171;SDS011;42052;41.634;-0.946;2023-04-25T10:11:39;4.45;;;1.90;;
56171;SDS011;42052;41.634;-0.946;2023-04-25T10:14:31;4.03;;;1.50;;
56171;SDS011;42052;41.634;-0.946;2023-04-25T10:17:18;4.18;;;1.80;;
56171;SDS011;42052;41.634;-0.946;2023-04-25T10:20:06;3.25;;;1.77;;
56171;SDS011;42052;41.634;-0.946;2023-04-25T10:22:57;3.75;;;1.40;;
56171;SDS011;42052;41.634;-0.946;2023-04-25T10:25:51;3.53;;;1.50;;
56171;SDS011;42052;41.634;-0.946;2023-04-25T10:28:57;3.00;;;1.42;;
56171;SDS011;42052;41.634;-0.946;2023-04-25T10:31:45;3.15;;;1.45;;
56171;SDS011;42052;41.634;-0.946;2023-04-25T10:34:39;3.10;;;1.45;;
56171;SDS011;42052;41.634;-0.946;2023-04-25T10:37:32;2.60;;;1.40;;
56171;SDS011;42052;41.634;-0.946;2023-04-25T10:40:21;3.08;;;1.60;;
56171;SDS011;42052;41.634;-0.946;2023-04-25T10:49:08;3.20;;;1.50;;
56171;SDS011;42052;41.634;-0.946;2023-04-25T10:55:02;2.92;;;1.52;;
56171;SDS011;42052;41.634;-0.946;2023-04-25T10:57:49;3.10;;;1.45;;
56171;SDS011;42052;41.634;-0.946;2023-04-25T11:00:36;3.60;;;1.50;;
56171;SDS011;42052;41.634;-0.946;2023-04-25T11:03:25;4.03;;;1.48;;
56171;SDS011;42052;41.634;-0.946;2023-04-25T11:09:29;3.75;;;1.50;;
56171;SDS011;42052;41.634;-0.946;2023-04-25T11:12:16;2.65;;;1.30;;
56171;SDS011;42052;41.634;-0.946;2023-04-25T11:15:03;2.88;;;1.35;;
56171;SDS011;42052;41.634;-0.946;2023-04-25T11:17:51;2.60;;;1.20;;
56171;SDS011;42052;41.634;-0.946;2023-04-25T11:20:38;2.53;;;1.10;;
56171;SDS011;42052;41.634;-0.946;2023-04-25T11:23:29;3.58;;;1.20;;
56171;SDS011;42052;41.634;-0.946;2023-04-25T11:26:15;2.55;;;1.35;;
56171;SDS011;42052;41.634;-0.946;2023-04-25T11:29:01;2.80;;;1.42;;
56171;SDS011;42052;41.634;-0.946;2023-04-25T11:31:48;2.25;;;1.13;;
56171;SDS011;42052;41.634;-0.946;2023-04-25T11:34:34;3.28;;;1.48;;
56171;SDS011;42052;41.634;-0.946;2023-04-25T11:37:21;2.85;;;1.40;;
56171;SDS011;42052;41.634;-0.946;2023-04-25T11:40:07;3.00;;;1.20;;
56171;SDS011;42052;41.634;-0.946;2023-04-25T11:42:59;2.90;;;1.08;;
56171;SDS011;42052;41.634;-0.946;2023-04-25T11:45:46;2.28;;;1.10;;
56171;SDS011;42052;41.634;-0.946;2023-04-25T11:51:41;2.22;;;1.10;;
56171;SDS011;42052;41.634;-0.946;2023-04-25T11:54:29;3.13;;;1.10;;
56171;SDS011;42052;41.634;-0.946;2023-04-25T11:57:18;3.72;;;1.27;;
56171;SDS011;42052;41.634;-0.946;2023-04-25T12:00:09;1.85;;;1.00;;
56171;SDS011;42052;41.634;-0.946;2023-04-25T12:03:15;2.63;;;1.23;;
56171;SDS011;42052;41.634;-0.946;2023-04-25T12:06:02;2.70;;;1.30;;
56171;SDS011;42052;41.634;-0.946;2023-04-25T12:09:00;2.13;;;1.05;;
56171;SDS011;42052;41.634;-0.946;2023-04-25T12:11:54;3.10;;;1.33;;
56171;SDS011;42052;41.634;-0.946;2023-04-25T12:14:41;4.70;;;1.75;;
56171;SDS011;42052;41.634;-0.946;2023-04-25T12:17:37;1.92;;;1.10;;
56171;SDS011;42052;41.634;-0.946;2023-04-25T12:20:27;2.28;;;1.20;;
56171;SDS011;42052;41.634;-0.946;2023-04-25T12:23:14;3.13;;;1.00;;
56171;SDS011;42052;41.634;-0.946;2023-04-25T12:26:00;1.75;;;1.15;;
56171;SDS011;42052;41.634;-0.946;2023-04-25T12:28:48;1.88;;;1.02;;
56171;SDS011;42052;41.634;-0.946;2023-04-25T12:31:34;1.75;;;1.10;;
56171;SDS011;42052;41.634;-0.946;2023-04-25T12:34:21;3.05;;;1.17;;
56171;SDS011;42052;41.634;-0.946;2023-04-25T12:37:08;1.60;;;1.00;;
56171;SDS011;42052;41.634;-0.946;2023-04-25T12:39:54;2.15;;;1.00;;
56171;SDS011;42052;41.634;-0.946;2023-04-25T12:42:40;2.10;;;1.00;;
56171;SDS011;42052;41.634;-0.946;2023-04-25T12:45:26;2.95;;;1.20;;
56171;SDS011;42052;41.634;-0.946;2023-04-25T12:48:12;2.45;;;1.02;;
56171;SDS011;42052;41.634;-0.946;2023-04-25T12:50:59;2.08;;;1.15;;
56171;SDS011;42052;41.634;-0.946;2023-04-25T12:53:46;2.22;;;1.10;;
56171;SDS011;42052;41.634;-0.946;2023-04-25T12:56:32;2.78;;;0.98;;
56171;SDS011;42052;41.634;-0.946;2023-04-25T12:59:18;2.55;;;1.05;;
56171;SDS011;42052;41.634;-0.946;2023-04-25T13:02:05;1.65;;;0.90;;
56171;SDS011;42052;41.634;-0.946;2023-04-25T13:04:51;2.65;;;1.27;;
56171;SDS011;42052;41.634;-0.946;2023-04-25T13:07:38;2.30;;;1.30;;
56171;SDS011;42052;41.634;-0.946;2023-04-25T13:10:24;3.10;;;1.30;;
56171;SDS011;42052;41.634;-0.946;2023-04-25T13:13:10;2.65;;;1.17;;
56171;SDS011;42052;41.634;-0.946;2023-04-25T13:15:56;2.15;;;0.90;;
56171;SDS011;42052;41.634;-0.946;2023-04-25T13:18:43;1.60;;;1.00;;
56171;SDS011;42052;41.634;-0.946;2023-04-25T13:21:29;1.50;;;1.00;;
56171;SDS011;42052;41.634;-0.946;2023-04-25T13:24:17;2.35;;;1.10;;
56171;SDS011;42052;41.634;-0.946;2023-04-25T13:27:03;1.52;;;1.00;;
56171;SDS011;42052;41.634;-0.946;2023-04-25T13:29:50;2.35;;;1.10;;
56171;SDS011;42052;41.634;-0.946;2023-04-25T13:35:56;1.48;;;0.93;;
56171;SDS011;42052;41.634;-0.946;2023-04-25T13:38:43;1.30;;;0.90;;
56171;SDS011;42052;41.634;-0.946;2023-04-25T13:41:30;1.63;;;1.02;;
56171;SDS011;42052;41.634;-0.946;2023-04-25T13:44:16;1.73;;;1.00;;
56171;SDS011;42052;41.634;-0.946;2023-04-25T13:47:02;1.70;;;0.98;;
56171;SDS011;42052;41.634;-0.946;2023-04-25T13:49:50;2.17;;;0.90;;
56171;SDS011;42052;41.634;-0.946;2023-04-25T13:52:36;1.23;;;0.80;;
56171;SDS011;42052;41.634;-0.946;2023-04-25T13:55:23;1.17;;;0.82;;
56171;SDS011;42052;41.634;-0.946;2023-04-25T13:58:09;1.27;;;0.80;;
56171;SDS011;42052;41.634;-0.946;2023-04-25T14:00:55;2.08;;;1.00;;
56171;SDS011;42052;41.634;-0.946;2023-04-25T14:03:41;0.95;;;0.70;;
56171;SDS011;42052;41.634;-0.946;2023-04-25T14:06:31;1.35;;;0.80;;
56171;SDS011;42052;41.634;-0.946;2023-04-25T14:09:18;1.65;;;0.90;;
56171;SDS011;42052;41.634;-0.946;2023-04-25T14:12:06;1.85;;;0.93;;
56171;SDS011;42052;41.634;-0.946;2023-04-25T14:14:52;1.38;;;0.88;;
56171;SDS011;42052;41.634;-0.946;2023-04-25T14:17:38;1.27;;;0.93;;
56171;SDS011;42052;41.634;-0.946;2023-04-25T14:20:25;1.50;;;0.80;;
56171;SDS011;42052;41.634;-0.946;2023-04-25T14:23:12;1.98;;;0.95;;
56171;SDS011;42052;41.634;-0.946;2023-04-25T14:25:59;1.80;;;1.02;;
56171;SDS011;42052;41.634;-0.946;2023-04-25T14:28:45;2.45;;;1.20;;
56171;SDS011;42052;41.634;-0.946;2023-04-25T14:31:35;1.35;;;0.93;;
56171;SDS011;42052;41.634;-0.946;2023-04-25T14:34:21;2.20;;;0.95;;
56171;SDS011;42052;41.634;-0.946;2023-04-25T14:37:07;2.33;;;0.82;;
56171;SDS011;42052;41.634;-0.946;2023-04-25T14:39:53;1.85;;;0.95;;
56171;SDS011;42052;41.634;-0.946;2023-04-25T14:42:40;1.02;;;0.80;;
56171;SDS011;42052;41.634;-0.946;2023-04-25T14:45:26;1.80;;;0.90;;
56171;SDS011;42052;41.634;-0.946;2023-04-25T14:48:12;1.92;;;0.70;;
56171;SDS011;42052;41.634;-0.946;2023-04-25T14:50:59;2.35;;;0.95;;
56171;SDS011;42052;41.634;-0.946;2023-04-25T14:53:46;1.20;;;0.77;;
56171;SDS011;42052;41.634;-0.946;2023-04-25T14:56:32;1.90;;;0.93;;
56171;SDS011;42052;41.634;-0.946;2023-04-25T14:59:18;1.40;;;0.90;;
56171;SDS011;42052;41.634;-0.946;2023-04-25T15:02:05;1.20;;;0.90;;
56171;SDS011;42052;41.634;-0.946;2023-04-25T15:04:52;1.23;;;0.90;;
56171;SDS011;42052;41.634;-0.946;2023-04-25T15:07:39;1.35;;;0.77;;
56171;SDS011;42052;41.634;-0.946;2023-04-25T15:10:25;1.55;;;0.90;;
56171;SDS011;42052;41.634;-0.946;2023-04-25T15:13:11;1.70;;;1.00;;
56171;SDS011;42052;41.634;-0.946;2023-04-25T15:15:58;1.23;;;0.77;;
56171;SDS011;42052;41.634;-0.946;2023-04-25T15:18:44;1.60;;;0.80;;
56171;SDS011;42052;41.634;-0.946;2023-04-25T15:21:30;1.83;;;0.95;;
56171;SDS011;42052;41.634;-0.946;2023-04-25T15:24:17;1.75;;;0.88;;
56171;SDS011;42052;41.634;-0.946;2023-04-25T15:27:03;1.33;;;0.80;;
56171;SDS011;42052;41.634;-0.946;2023-04-25T15:29:50;1.08;;;0.80;;
56171;SDS011;42052;41.634;-0.946;2023-04-25T15:32:38;1.10;;;0.80;;
56171;SDS011;42052;41.634;-0.946;2023-04-25T15:35:24;0.90;;;0.68;;
56171;SDS011;42052;41.634;-0.946;2023-04-25T15:38:10;1.60;;;0.70;;
56171;SDS011;42052;41.634;-0.946;2023-04-25T15:40:56;2.72;;;0.70;;
56171;SDS011;42052;41.634;-0.946;2023-04-25T15:43:43;1.85;;;0.80;;
56171;SDS011;42052;41.634;-0.946;2023-04-25T15:46:29;1.85;;;0.88;;
56171;SDS011;42052;41.634;-0.946;2023-04-25T15:49:15;0.88;;;0.60;;
56171;SDS011;42052;41.634;-0.946;2023-04-25T15:52:03;1.05;;;0.77;;
56171;SDS011;42052;41.634;-0.946;2023-04-25T15:54:50;1.30;;;0.80;;
56171;SDS011;42052;41.634;-0.946;2023-04-25T15:57:36;1.25;;;0.88;;
56171;SDS011;42052;41.634;-0.946;2023-04-25T16:00:23;1.85;;;0.93;;
56171;SDS011;42052;41.634;-0.946;2023-04-25T16:03:09;1.65;;;0.75;;
56171;SDS011;42052;41.634;-0.946;2023-04-25T16:05:56;1.63;;;0.70;;
56171;SDS011;42052;41.634;-0.946;2023-04-25T16:08:45;1.80;;;0.88;;
56171;SDS011;42052;41.634;-0.946;2023-04-25T16:11:31;1.35;;;0.70;;
56171;SDS011;42052;41.634;-0.946;2023-04-25T16:14:17;1.25;;;0.70;;
56171;SDS011;42052;41.634;-0.946;2023-04-25T16:17:03;1.58;;;0.80;;
56171;SDS011;42052;41.634;-0.946;2023-04-25T16:19:50;2.67;;;0.73;;
56171;SDS011;42052;41.634;-0.946;2023-04-25T16:22:38;1.50;;;0.60;;
56171;SDS011;42052;41.634;-0.946;2023-04-25T16:25:25;1.85;;;0.82;;
56171;SDS011;42052;41.634;-0.946;2023-04-25T16:28:12;1.13;;;0.90;;
56171;SDS011;42052;41.634;-0.946;2023-04-25T16:30:58;2.90;;;0.85;;
56171;SDS011;42052;41.634;-0.946;2023-04-25T16:33:45;1.38;;;0.70;;
56171;SDS011;42052;41.634;-0.946;2023-04-25T16:36:31;1.15;;;0.70;;
56171;SDS011;42052;41.634;-0.946;2023-04-25T16:39:18;1.58;;;0.82;;
56171;SDS011;42052;41.634;-0.946;2023-04-25T16:42:06;1.20;;;0.88;;
56171;SDS011;42052;41.634;-0.946;2023-04-25T16:44:52;1.13;;;0.80;;
56171;SDS011;42052;41.634;-0.946;2023-04-25T16:47:38;1.20;;;0.80;;
56171;SDS011;42052;41.634;-0.946;2023-04-25T16:50:24;2.08;;;0.68;;
56171;SDS011;42052;41.634;-0.946;2023-04-25T16:53:11;1.50;;;0.80;;
56171;SDS011;42052;41.634;-0.946;2023-04-25T16:55:57;0.85;;;0.70;;